Easy to use

vPilot, FSInn, and Squawkbox

VATSIM has 3 different client software available to choose by the user. The 3 different softwares are relatively easy to use and enjoyable to the user's experience. The software's operating manual is available to download in case user has not been able to fully operate the software to get a real working pilot experience.

Radar that functions similarly to real ATC's radar

EuroScope & VRC

VATSIM uses an advanced radar client simulating real ATC experience in the real world. Although it said to be advanced, both radar clients are very easy to use. Another interesting point is VATSIM has the technology to break the limit between simulation and real life experience.

With VATSIM, you can learn more about aviation.
You can also discuss with other aviation geek.

Unforgettable Experience

Current Activity

No controllers currently online!

Pilot

Callsign Name Route
CAL5853Ray Price CYYT (1071726)RCTP-WIII
HVN631An TRUONG LFBO (1158560)VVTS-WIII
N7813PChuck Tessein KORL (810039)VTSP-WALL
QTR961Dominic Temple CYYZ (1371588)WADD-OTHH

*This information may not be up to date.

METAR

Airport Name - Location (ICAO) METAR
Sultan Hasanuddin - Makassar (WAAA)METAR WAAA 112000Z 05004KT 8000 TS FEW018CB SCT019 26/24 Q1009|NOSIG|RMK CB IN APCH=
I Gusti Ngurah Rai - Denpasar (WADD)METAR WADD 112000Z 26002KT 9999 FEW017 27/24 Q1010|NOSIG=
Ahmad Yani - Semarang (WAHS)METAR WAHS 112000Z AUTO 15002KT 9999NDV NCD 26/22 Q1008=
Juanda - Surabaya (WARR)METAR WARR 111930Z 00000KT 6000 FEW020 26/22 Q1008|NOSIG=
Soekarno Hatta - Jakarta (WIII)METAR WIII 112000Z 20004KT 6000 SCT020 27/23 Q1008|NOSIG=
Halim Perdana Kusuma - Jakarta (WIHH)There is no METAR for Halim Perdana Kusuma - Jakarta.
Kualanamu International Airport - Deli Serdang (WIMM)METAR WIMM 112000Z 21004KT 6000 SCT017 24/24 Q1009|NOSIG=

*METAR resource from BMKG. This information may not be up to date.

VATSIM Indonesia vACC VATSIM South East Asia VATSIM Asia